createdAt,value
2023-05-20T00:02:17.267Z,5.25
2023-05-20T00:04:44.229Z,3.87
2023-05-20T00:07:10.809Z,2.55
2023-05-20T00:09:38.851Z,4.63
2023-05-20T00:12:07.401Z,4.97
2023-05-20T00:14:34.442Z,4.30
2023-05-20T00:17:01.148Z,2.97
2023-05-20T00:19:28.131Z,2.28
2023-05-20T00:21:54.779Z,5.40
2023-05-20T00:24:21.322Z,3.58
2023-05-20T00:26:48.066Z,4.47
2023-05-20T00:29:15.983Z,4.40
2023-05-20T00:31:43.244Z,8.70
2023-05-20T00:34:09.884Z,2.63
2023-05-20T00:36:36.847Z,5.10
2023-05-20T00:39:03.518Z,5.22
2023-05-20T00:41:30.123Z,4.80
2023-05-20T00:43:57.084Z,4.72
2023-05-20T00:46:28.156Z,4.95
2023-05-20T00:48:55.054Z,5.15
2023-05-20T00:51:21.883Z,4.90
2023-05-20T00:53:50.625Z,5.07
2023-05-20T00:56:18.547Z,5.38
2023-05-20T00:58:45.580Z,2.42
2023-05-20T01:01:12.463Z,1.77
2023-05-20T01:03:40.685Z,2.63
2023-05-20T01:06:07.335Z,2.93
2023-05-20T01:08:34.330Z,3.65
2023-05-20T01:11:06.576Z,4.25
2023-05-20T01:13:39.092Z,7.82
2023-05-20T01:16:08.780Z,2.22
2023-05-20T01:18:36.437Z,2.43
2023-05-20T01:21:07.359Z,2.83
2023-05-20T01:23:38.693Z,3.53
2023-05-20T01:26:05.359Z,3.72
2023-05-20T01:28:32.180Z,6.35
2023-05-20T01:31:01.917Z,3.80
2023-05-20T01:33:29.464Z,4.90
2023-05-20T01:35:57.363Z,5.35
2023-05-20T01:38:25.486Z,2.85
2023-05-20T01:40:54.352Z,3.60
2023-05-20T01:43:22.477Z,3.60
2023-05-20T01:45:49.243Z,3.13
2023-05-20T01:48:15.859Z,2.85
2023-05-20T01:50:42.722Z,3.35
2023-05-20T01:53:09.330Z,2.88
2023-05-20T01:55:36.379Z,2.23
2023-05-20T01:58:04.860Z,3.88
2023-05-20T02:00:32.309Z,3.88
2023-05-20T02:02:59.195Z,3.78
2023-05-20T02:05:26.033Z,3.05
2023-05-20T02:07:52.659Z,3.40
2023-05-20T02:10:19.255Z,5.63
2023-05-20T02:12:45.872Z,3.78
2023-05-20T02:15:14.096Z,3.80
2023-05-20T02:17:40.707Z,3.15
2023-05-20T02:20:08.809Z,2.30
2023-05-20T02:22:35.381Z,4.90
2023-05-20T02:25:01.991Z,3.85
2023-05-20T02:27:28.610Z,3.38
2023-05-20T02:29:55.349Z,4.68
2023-05-20T02:32:23.390Z,5.17
2023-05-20T02:34:50.022Z,2.65
2023-05-20T02:37:16.576Z,3.70
2023-05-20T02:39:43.360Z,5.70
2023-05-20T02:42:10.095Z,5.30
2023-05-20T02:44:36.977Z,4.60
2023-05-20T02:47:04.196Z,5.65
2023-05-20T02:49:32.219Z,5.72
2023-05-20T02:51:58.833Z,4.60
2023-05-20T02:54:25.474Z,2.63
2023-05-20T02:56:52.271Z,5.50
2023-05-20T02:59:19.026Z,5.20
2023-05-20T03:01:45.710Z,5.70
2023-05-20T03:04:12.688Z,4.20
2023-05-20T03:06:40.757Z,4.88
2023-05-20T03:09:07.407Z,4.20
2023-05-20T03:11:34.017Z,6.32
2023-05-20T03:14:00.699Z,3.95
2023-05-20T03:16:27.341Z,4.97
2023-05-20T03:18:54.194Z,7.07
2023-05-20T03:21:20.838Z,3.93
2023-05-20T03:23:48.759Z,5.65
2023-05-20T03:26:15.387Z,5.47
2023-05-20T03:28:42.131Z,4.25
2023-05-20T03:31:08.781Z,4.82
2023-05-20T03:33:35.669Z,5.40
2023-05-20T03:36:02.467Z,5.47
2023-05-20T03:38:29.073Z,4.15
2023-05-20T03:40:57.362Z,4.47
2023-05-20T03:43:23.975Z,4.03
2023-05-20T03:45:51.088Z,3.83
2023-05-20T03:48:17.722Z,14.05
2023-05-20T03:50:44.345Z,3.28
2023-05-20T03:53:10.819Z,2.55
2023-05-20T03:55:37.551Z,3.92
2023-05-20T03:58:05.479Z,3.03
2023-05-20T04:00:32.216Z,5.32
2023-05-20T04:02:59.086Z,2.72
2023-05-20T04:05:25.872Z,3.00
2023-05-20T04:07:52.514Z,3.35
2023-05-20T04:10:19.954Z,3.73
2023-05-20T04:12:46.835Z,5.25
2023-05-20T04:15:17.067Z,4.63
2023-05-20T04:17:43.924Z,4.60
2023-05-20T04:20:11.562Z,3.33
2023-05-20T04:22:38.429Z,4.10
2023-05-20T04:25:05.796Z,3.67
2023-05-20T04:27:32.588Z,6.65
2023-05-20T04:29:59.221Z,3.45
2023-05-20T04:32:27.355Z,2.60
2023-05-20T04:34:54.975Z,3.17
2023-05-20T04:37:22.003Z,3.45
2023-05-20T04:39:48.999Z,5.00
2023-05-20T04:42:15.944Z,8.80
2023-05-20T04:44:42.653Z,4.28
2023-05-20T04:47:09.720Z,5.93
2023-05-20T04:49:37.746Z,5.80
2023-05-20T04:52:05.204Z,6.32
2023-05-20T04:54:32.601Z,3.50
2023-05-20T04:56:59.621Z,9.10
2023-05-20T04:59:26.246Z,3.80
2023-05-20T05:01:53.433Z,4.53
2023-05-20T05:04:20.138Z,3.08
2023-05-20T05:06:51.823Z,3.20
2023-05-20T05:09:18.479Z,2.78
2023-05-20T05:11:45.399Z,6.53
2023-05-20T05:14:12.086Z,3.38
2023-05-20T05:16:38.867Z,5.20
2023-05-20T05:19:05.667Z,2.97
2023-05-20T05:21:35.438Z,3.78
2023-05-20T05:24:03.767Z,5.03
2023-05-20T05:26:30.470Z,3.50
2023-05-20T05:28:57.522Z,2.70
2023-05-20T05:31:24.395Z,4.55
2023-05-20T05:33:51.034Z,4.53
2023-05-20T05:36:17.722Z,3.00
2023-05-20T05:38:44.900Z,4.53
2023-05-20T05:41:13.202Z,3.28
2023-05-20T05:43:39.830Z,2.22
2023-05-20T05:46:06.614Z,5.28
2023-05-20T05:48:33.638Z,8.00
2023-05-20T05:51:00.232Z,2.65
2023-05-20T05:53:26.848Z,2.35
2023-05-20T05:55:53.602Z,4.47
2023-05-20T05:58:21.607Z,5.15
2023-05-20T06:00:51.565Z,4.70
2023-05-20T06:03:18.324Z,4.80
2023-05-20T06:05:45.702Z,3.05
2023-05-20T06:08:12.292Z,2.50
2023-05-20T06:10:39.293Z,4.63
2023-05-20T06:13:05.899Z,3.47
2023-05-20T06:15:34.155Z,3.33
2023-05-20T06:18:00.925Z,8.20
2023-05-20T06:20:27.515Z,2.95
2023-05-20T06:22:54.110Z,4.72
2023-05-20T06:25:23.275Z,5.53
2023-05-20T06:27:50.081Z,4.25
2023-05-20T06:30:16.755Z,2.90
2023-05-20T06:32:45.951Z,2.65
2023-05-20T06:35:12.581Z,4.05
2023-05-20T06:37:39.112Z,4.30
2023-05-20T06:40:07.112Z,3.33
2023-05-20T06:42:33.925Z,3.10
2023-05-20T06:45:00.538Z,2.85
2023-05-20T06:47:27.134Z,6.03
2023-05-20T06:49:55.132Z,5.93
2023-05-20T06:52:21.763Z,4.07
2023-05-20T06:54:48.450Z,3.78
2023-05-20T06:57:15.040Z,3.45
2023-05-20T06:59:41.667Z,2.30
2023-05-20T07:02:08.475Z,3.10
2023-05-20T07:04:35.148Z,2.13
2023-05-20T07:07:03.129Z,4.70
2023-05-20T07:09:29.618Z,5.22
2023-05-20T07:11:56.240Z,4.38
2023-05-20T07:14:22.844Z,6.70
2023-05-20T07:16:49.451Z,3.50
2023-05-20T07:19:16.019Z,5.88
2023-05-20T07:21:42.687Z,4.30
2023-05-20T07:24:10.603Z,3.55
2023-05-20T07:26:37.274Z,2.57
2023-05-20T07:29:04.047Z,2.55
2023-05-20T07:31:30.731Z,3.50
2023-05-20T07:33:57.728Z,6.93
2023-05-20T07:36:26.380Z,2.90
2023-05-20T07:39:03.045Z,2.97
2023-05-20T07:41:33.134Z,3.78
2023-05-20T07:44:03.290Z,3.80
2023-05-20T07:46:30.116Z,6.47
2023-05-20T07:48:57.036Z,7.28
2023-05-20T07:51:23.789Z,6.17
2023-05-20T07:53:50.533Z,4.35
2023-05-20T07:56:17.681Z,3.35
2023-05-20T07:58:52.927Z,3.15
2023-05-20T08:01:19.550Z,4.03
2023-05-20T08:03:46.337Z,7.13
2023-05-20T08:06:13.329Z,4.30
2023-05-20T08:08:40.164Z,4.97
2023-05-20T08:11:06.848Z,3.40
2023-05-20T08:13:33.688Z,4.28
2023-05-20T08:16:01.725Z,4.40
2023-05-20T08:18:28.358Z,4.20
2023-05-20T08:20:55.052Z,8.60
2023-05-20T08:23:21.736Z,3.97
2023-05-20T08:25:48.387Z,5.65
2023-05-20T08:28:15.029Z,5.50
2023-05-20T08:30:41.767Z,6.18
2023-05-20T08:33:09.780Z,6.88
2023-05-20T08:35:36.753Z,7.57
2023-05-20T08:38:03.749Z,6.05
2023-05-20T08:40:30.380Z,5.17
2023-05-20T08:42:57.334Z,3.28
2023-05-20T08:45:25.277Z,5.97
2023-05-20T08:47:52.092Z,3.90
2023-05-20T08:50:21.137Z,5.68
2023-05-20T08:52:48.359Z,4.63
2023-05-20T08:55:17.649Z,4.63
2023-05-20T08:57:44.693Z,3.45
2023-05-20T09:00:13.455Z,3.80
2023-05-20T09:02:40.210Z,7.47
2023-05-20T09:05:10.059Z,3.20
2023-05-20T09:07:38.120Z,4.15
2023-05-20T09:10:06.265Z,4.38
2023-05-20T09:12:32.860Z,5.97
2023-05-20T09:14:59.672Z,4.80
2023-05-20T09:17:26.378Z,7.23
2023-05-20T09:19:53.457Z,4.45
2023-05-20T09:22:23.711Z,4.22
2023-05-20T09:24:51.867Z,7.18
2023-05-20T09:27:18.602Z,7.85
2023-05-20T09:29:45.245Z,4.87
2023-05-20T09:32:13.213Z,6.25
2023-05-20T09:34:40.345Z,5.95
2023-05-20T09:37:07.441Z,4.97
2023-05-20T09:39:44.250Z,5.13
2023-05-20T09:42:18.563Z,6.37
2023-05-20T09:44:47.007Z,6.47
2023-05-20T09:47:14.693Z,4.57
2023-05-20T09:49:42.617Z,4.88
2023-05-20T09:52:10.021Z,4.82
2023-05-20T09:54:36.736Z,5.10
2023-05-20T09:57:04.950Z,4.93
2023-05-20T09:59:35.135Z,4.50
2023-05-20T10:02:12.872Z,4.07
2023-05-20T10:04:49.920Z,7.85
2023-05-20T10:07:41.933Z,6.03
2023-05-20T10:10:23.565Z,9.57
2023-05-20T10:13:05.411Z,9.52
2023-05-20T10:15:42.756Z,7.63
2023-05-20T10:18:22.500Z,6.85
2023-05-20T10:20:50.371Z,5.00
2023-05-20T10:23:23.894Z,7.13
2023-05-20T10:25:51.495Z,7.93
2023-05-20T10:28:29.048Z,7.00
2023-05-20T10:30:55.662Z,4.78
2023-05-20T10:33:23.755Z,5.97
2023-05-20T10:35:51.416Z,4.70
2023-05-20T10:38:18.718Z,5.80
2023-05-20T10:40:45.348Z,9.90
2023-05-20T10:43:13.634Z,5.38
2023-05-20T10:45:58.329Z,7.38
2023-05-20T10:48:28.874Z,5.57
2023-05-20T10:50:57.196Z,5.47
2023-05-20T10:53:33.332Z,6.38
2023-05-20T10:56:01.046Z,10.50
2023-05-20T10:58:27.721Z,5.95
2023-05-20T11:00:55.444Z,4.73
2023-05-20T11:03:22.796Z,7.82
2023-05-20T11:05:51.632Z,8.23
2023-05-20T11:08:28.525Z,6.43
2023-05-20T11:10:57.044Z,6.68
2023-05-20T11:13:25.054Z,6.13
2023-05-20T11:15:51.835Z,4.90
2023-05-20T11:18:19.081Z,12.90
2023-05-20T11:20:47.000Z,6.95
2023-05-20T11:23:15.834Z,6.47
2023-05-20T11:25:42.808Z,5.43
2023-05-20T11:28:12.892Z,6.95
2023-05-20T11:30:39.702Z,6.85
2023-05-20T11:33:06.380Z,5.03
2023-05-20T11:35:33.381Z,5.55
2023-05-20T11:38:04.171Z,7.97
2023-05-20T11:40:46.305Z,8.57
2023-05-20T11:43:16.156Z,6.22
2023-05-20T11:45:43.788Z,6.03
2023-05-20T11:48:11.073Z,7.82
2023-05-20T11:50:39.473Z,5.87
2023-05-20T11:53:07.472Z,4.93
2023-05-20T11:55:45.340Z,8.90
2023-05-20T11:58:12.205Z,6.05
2023-05-20T12:00:49.751Z,5.03
2023-05-20T12:03:20.218Z,4.90
2023-05-20T12:05:47.267Z,7.90
2023-05-20T12:08:14.172Z,5.50
2023-05-20T12:10:42.241Z,6.40
2023-05-20T12:13:09.035Z,6.93
2023-05-20T12:15:35.895Z,4.37
2023-05-20T12:18:02.875Z,4.75
2023-05-20T12:20:30.485Z,4.95
2023-05-20T12:22:57.677Z,6.18
2023-05-20T12:25:24.471Z,4.97
2023-05-20T12:27:52.551Z,6.13
2023-05-20T12:30:20.825Z,4.75
2023-05-20T12:32:48.485Z,4.63
2023-05-20T12:35:16.728Z,5.10
2023-05-20T12:37:44.155Z,7.03
2023-05-20T12:40:12.525Z,5.17
2023-05-20T12:42:40.239Z,4.40
2023-05-20T12:45:09.319Z,4.55
2023-05-20T12:47:36.683Z,5.72
2023-05-20T12:50:03.760Z,6.03
2023-05-20T12:52:30.399Z,4.07
2023-05-20T12:54:57.437Z,4.55
2023-05-20T12:57:24.727Z,4.65
2023-05-20T12:59:51.519Z,4.00
2023-05-20T13:02:19.686Z,4.07
2023-05-20T13:04:46.389Z,4.50
2023-05-20T13:07:13.163Z,4.38
2023-05-20T13:09:39.758Z,6.53
2023-05-20T13:12:07.280Z,3.70
2023-05-20T13:14:34.051Z,4.03
2023-05-20T13:17:00.814Z,3.30
2023-05-20T13:19:28.977Z,4.72
2023-05-20T13:21:55.701Z,8.60
2023-05-20T13:24:22.571Z,3.38
2023-05-20T13:26:49.228Z,4.43
2023-05-20T13:29:15.910Z,9.47
2023-05-20T13:31:42.555Z,5.88
2023-05-20T13:34:09.263Z,5.43
2023-05-20T13:36:37.414Z,3.47
2023-05-20T13:39:04.073Z,3.40
2023-05-20T13:41:30.903Z,5.13
2023-05-20T13:43:57.557Z,3.83
2023-05-20T13:46:24.426Z,3.83
2023-05-20T13:48:51.054Z,6.22
2023-05-20T13:51:18.231Z,5.32
2023-05-20T13:53:46.215Z,3.70
2023-05-20T13:56:12.941Z,3.63
2023-05-20T13:58:39.619Z,4.32
2023-05-20T14:01:06.369Z,4.35
2023-05-20T14:03:33.524Z,5.32
2023-05-20T14:06:00.303Z,3.83
2023-05-20T14:08:27.044Z,5.82
2023-05-20T14:10:55.339Z,4.88
2023-05-20T14:13:22.639Z,8.30
2023-05-20T14:15:49.370Z,5.38
2023-05-20T14:18:16.140Z,4.53
2023-05-20T14:20:42.876Z,4.47
2023-05-20T14:23:09.576Z,3.50
2023-05-20T14:25:36.205Z,5.00
2023-05-20T14:28:04.827Z,4.47
2023-05-20T14:30:32.036Z,4.67
2023-05-20T14:32:58.714Z,5.95
2023-05-20T14:35:25.522Z,5.28
2023-05-20T14:37:52.577Z,8.65
2023-05-20T14:40:19.221Z,8.55
2023-05-20T14:42:46.048Z,8.73
2023-05-20T14:45:14.147Z,8.15
2023-05-20T14:47:40.792Z,4.60
2023-05-20T14:50:08.218Z,4.35
2023-05-20T14:52:36.744Z,3.42
2023-05-20T14:55:03.697Z,4.87
2023-05-20T14:57:30.328Z,3.92
2023-05-20T14:59:57.015Z,4.40
2023-05-20T15:02:25.034Z,6.60
2023-05-20T15:04:51.703Z,3.47
2023-05-20T15:07:18.432Z,3.20
2023-05-20T15:09:45.022Z,8.30
2023-05-20T15:12:11.790Z,4.75
2023-05-20T15:14:38.453Z,4.93
2023-05-20T15:17:05.304Z,4.10
2023-05-20T15:19:33.509Z,3.20
2023-05-20T15:22:00.443Z,3.20
2023-05-20T15:24:27.032Z,4.13
2023-05-20T15:26:54.149Z,4.20
2023-05-20T15:29:21.796Z,3.40
2023-05-20T15:31:48.416Z,3.30
2023-05-20T15:34:15.006Z,3.20
2023-05-20T15:36:42.920Z,3.58
2023-05-20T15:39:09.666Z,4.85
2023-05-20T15:41:36.239Z,3.50
2023-05-20T15:44:03.167Z,3.17
2023-05-20T15:46:29.728Z,4.15
2023-05-20T15:48:56.451Z,3.83
2023-05-20T15:51:23.556Z,5.93
2023-05-20T15:53:51.540Z,5.13
2023-05-20T15:56:18.186Z,7.37
2023-05-20T15:58:44.794Z,4.50
2023-05-20T16:01:11.730Z,3.35
2023-05-20T16:03:38.603Z,5.32
2023-05-20T16:06:05.359Z,4.55
2023-05-20T16:08:32.121Z,3.27
2023-05-20T16:11:00.184Z,5.65
2023-05-20T16:13:26.940Z,3.50
2023-05-20T16:15:53.671Z,6.38
2023-05-20T16:18:20.513Z,5.97
2023-05-20T16:20:48.228Z,5.83
2023-05-20T16:23:14.755Z,4.28
2023-05-20T16:25:41.371Z,5.75
2023-05-20T16:28:09.624Z,5.25
2023-05-20T16:30:36.648Z,4.50
2023-05-20T16:33:03.933Z,3.77
2023-05-20T16:35:30.601Z,4.20
2023-05-20T16:37:57.248Z,4.72
2023-05-20T16:40:23.892Z,4.13
2023-05-20T16:42:50.535Z,4.78
2023-05-20T16:45:18.668Z,5.00
2023-05-20T16:47:46.045Z,3.90
2023-05-20T16:50:12.684Z,7.38
2023-05-20T16:52:39.849Z,4.20
2023-05-20T16:55:06.943Z,4.40
2023-05-20T16:57:33.607Z,4.77
2023-05-20T17:00:00.259Z,4.18
2023-05-20T17:02:28.454Z,4.65
2023-05-20T17:04:55.104Z,3.83
2023-05-20T17:07:21.727Z,5.75
2023-05-20T17:09:48.545Z,5.20
2023-05-20T17:12:15.229Z,6.15
2023-05-20T17:14:41.836Z,4.68
2023-05-20T17:17:08.476Z,4.75
2023-05-20T17:19:36.733Z,4.43
2023-05-20T17:22:03.354Z,4.60
2023-05-20T17:24:30.094Z,4.78
2023-05-20T17:26:56.669Z,4.22
2023-05-20T17:29:23.268Z,5.70
2023-05-20T17:31:50.505Z,4.00
2023-05-20T17:34:17.344Z,7.93
2023-05-20T17:36:45.859Z,4.35
2023-05-20T17:39:12.688Z,4.55
2023-05-20T17:41:39.524Z,3.83
2023-05-20T17:44:06.488Z,3.45
2023-05-20T17:46:33.420Z,3.60
2023-05-20T17:49:00.469Z,3.33
2023-05-20T17:51:27.108Z,4.57
2023-05-20T17:53:54.942Z,8.98
2023-05-20T17:56:22.055Z,3.67
2023-05-20T17:58:48.796Z,3.90
2023-05-20T18:01:15.549Z,6.40
2023-05-20T18:03:42.270Z,3.63
2023-05-20T18:06:09.028Z,8.25
2023-05-20T18:08:35.633Z,6.50
2023-05-20T18:11:03.956Z,6.17
2023-05-20T18:13:30.504Z,4.00
2023-05-20T18:15:56.968Z,7.93
2023-05-20T18:18:23.765Z,8.15
2023-05-20T18:20:50.692Z,4.05
2023-05-20T18:23:17.297Z,4.87
2023-05-20T18:25:44.100Z,5.68
2023-05-20T18:28:12.332Z,4.57
2023-05-20T18:30:39.092Z,6.20
2023-05-20T18:33:05.778Z,3.90
2023-05-20T18:35:32.397Z,5.83
2023-05-20T18:37:59.121Z,5.90
2023-05-20T18:40:25.706Z,6.72
2023-05-20T18:42:52.444Z,5.68
2023-05-20T18:45:20.708Z,5.85
2023-05-20T18:47:47.414Z,7.17
2023-05-20T18:50:14.004Z,7.05
2023-05-20T18:52:40.603Z,7.53
2023-05-20T18:55:08.184Z,7.72
2023-05-20T18:57:34.923Z,5.60
2023-05-20T19:00:01.547Z,4.77
2023-05-20T19:02:29.691Z,6.50
2023-05-20T19:04:56.431Z,6.43
2023-05-20T19:07:23.100Z,5.65
2023-05-20T19:09:49.698Z,6.82
2023-05-20T19:12:16.439Z,10.37
2023-05-20T19:14:43.054Z,5.63
2023-05-20T19:17:10.079Z,7.65
2023-05-20T19:19:38.122Z,6.97
2023-05-20T19:22:05.137Z,7.45
2023-05-20T19:24:32.264Z,9.00
2023-05-20T19:26:59.113Z,6.20
2023-05-20T19:29:25.717Z,6.43
2023-05-20T19:31:52.506Z,7.53
2023-05-20T19:34:19.181Z,10.52
2023-05-20T19:36:47.231Z,8.47
2023-05-20T19:39:13.935Z,9.23
2023-05-20T19:41:40.636Z,7.57
2023-05-20T19:44:08.666Z,6.10
2023-05-20T19:46:36.218Z,9.52
2023-05-20T19:49:03.395Z,8.93
2023-05-20T19:51:30.004Z,6.78
2023-05-20T19:53:58.105Z,8.80
2023-05-20T19:56:24.709Z,7.22
2023-05-20T19:58:51.813Z,7.38
2023-05-20T20:01:18.444Z,7.93
2023-05-20T20:03:45.358Z,8.05
2023-05-20T20:06:12.328Z,7.47
2023-05-20T20:08:39.196Z,7.95
2023-05-20T20:11:07.843Z,8.13
2023-05-20T20:13:35.120Z,9.10
2023-05-20T20:16:03.537Z,8.35
2023-05-20T20:18:30.194Z,12.65
2023-05-20T20:20:56.781Z,12.13
2023-05-20T20:23:23.609Z,11.75
2023-05-20T20:25:50.222Z,9.53
2023-05-20T20:28:18.440Z,11.60
2023-05-20T20:30:45.061Z,7.88
2023-05-20T20:33:11.637Z,8.40
2023-05-20T20:35:38.844Z,10.15
2023-05-20T20:38:05.541Z,10.53
2023-05-20T20:40:32.311Z,8.55
2023-05-20T20:42:59.044Z,10.57
2023-05-20T20:45:26.978Z,9.10
2023-05-20T20:47:53.872Z,10.85
2023-05-20T20:50:20.814Z,11.13
2023-05-20T20:52:47.874Z,8.13
2023-05-20T20:55:14.567Z,10.10
2023-05-20T20:57:41.219Z,12.52
2023-05-20T21:00:08.927Z,9.68
2023-05-20T21:02:36.817Z,10.63
2023-05-20T21:05:03.574Z,11.68
2023-05-20T21:07:30.258Z,10.00
2023-05-20T21:09:56.820Z,9.25
2023-05-20T21:12:23.552Z,10.95
2023-05-20T21:14:50.176Z,10.50
2023-05-20T21:17:16.815Z,11.82
2023-05-20T21:19:44.904Z,11.30
2023-05-20T21:22:11.502Z,11.13
2023-05-20T21:24:38.148Z,12.93
2023-05-20T21:27:05.038Z,10.40
2023-05-20T21:29:32.001Z,14.13
2023-05-20T21:31:58.888Z,15.05
2023-05-20T21:34:25.458Z,9.95
2023-05-20T21:36:53.462Z,11.93
2023-05-20T21:39:20.086Z,15.50
2023-05-20T21:41:46.690Z,10.75
2023-05-20T21:44:13.794Z,12.88
2023-05-20T21:46:40.419Z,9.82
2023-05-20T21:49:07.088Z,11.57
2023-05-20T21:51:33.895Z,14.23
2023-05-20T21:54:01.879Z,12.10
2023-05-20T21:56:28.814Z,13.32
2023-05-20T21:58:55.428Z,13.75
2023-05-20T22:01:22.071Z,12.80
2023-05-20T22:03:51.013Z,14.83
2023-05-20T22:06:18.579Z,14.57
2023-05-20T22:08:45.165Z,13.85
2023-05-20T22:11:13.292Z,14.77
2023-05-20T22:13:39.904Z,13.73
2023-05-20T22:16:07.755Z,11.30
2023-05-20T22:18:34.551Z,14.00
2023-05-20T22:21:01.200Z,14.18
2023-05-20T22:23:28.507Z,11.95
2023-05-20T22:25:55.639Z,11.57
2023-05-20T22:28:23.923Z,13.23
2023-05-20T22:30:51.151Z,13.95
2023-05-20T22:33:17.762Z,13.05
2023-05-20T22:35:44.349Z,16.08
2023-05-20T22:38:11.110Z,10.23
2023-05-20T22:40:37.722Z,15.00
2023-05-20T22:43:04.313Z,11.25
2023-05-20T22:45:32.504Z,12.43
2023-05-20T22:47:59.224Z,11.95
2023-05-20T22:50:25.992Z,13.98
2023-05-20T22:52:52.619Z,15.23
2023-05-20T22:55:19.175Z,12.65
2023-05-20T22:57:45.830Z,13.90
2023-05-20T23:00:13.386Z,12.30
2023-05-20T23:02:41.459Z,11.82
2023-05-20T23:05:08.616Z,13.77
2023-05-20T23:07:35.245Z,14.63
2023-05-20T23:10:02.014Z,14.55
2023-05-20T23:12:28.760Z,13.73
2023-05-20T23:14:55.243Z,10.15
2023-05-20T23:17:22.125Z,13.10
2023-05-20T23:19:50.042Z,12.60
2023-05-20T23:22:16.673Z,12.30
2023-05-20T23:24:43.346Z,11.60
2023-05-20T23:27:10.401Z,11.45
2023-05-20T23:29:36.978Z,11.50
2023-05-20T23:32:03.963Z,13.50
2023-05-20T23:34:30.553Z,11.25
2023-05-20T23:36:58.574Z,10.05
2023-05-20T23:39:25.161Z,11.63
2023-05-20T23:41:51.903Z,10.73
2023-05-20T23:44:18.507Z,8.15
2023-05-20T23:46:45.270Z,7.78
2023-05-20T23:49:11.910Z,11.93
2023-05-20T23:51:38.507Z,7.78
2023-05-20T23:54:06.612Z,10.57
2023-05-20T23:56:33.194Z,8.48
2023-05-20T23:58:59.811Z,8.45
